地図

経路データ

SID SEASON NUMBER BASIN SUBBASIN NAME ISO_TIME NATURE LAT LON WMO_WIND WMO_PRES WMO_AGENCY TRACK_TYPE DIST2LAND LANDFALL IFLAG USA_AGENCY USA_ATCF_ID USA_LAT USA_LON USA_RECORD USA_STATUS USA_WIND USA_PRES USA_SSHS USA_R34_NE USA_R34_SE USA_R34_SW USA_R34_NW USA_R50_NE USA_R50_SE USA_R50_SW USA_R50_NW USA_R64_NE USA_R64_SE USA_R64_SW USA_R64_NW USA_POCI USA_ROCI USA_RMW USA_EYE TOKYO_LAT TOKYO_LON TOKYO_GRADE TOKYO_WIND TOKYO_PRES TOKYO_R50_DIR TOKYO_R50_LONG TOKYO_R50_SHORT TOKYO_R30_DIR TOKYO_R30_LONG TOKYO_R30_SHORT TOKYO_LAND CMA_LAT CMA_LON CMA_CAT CMA_WIND CMA_PRES HKO_LAT HKO_LON HKO_CAT HKO_WIND HKO_PRES NEWDELHI_LAT NEWDELHI_LON NEWDELHI_GRADE NEWDELHI_WIND NEWDELHI_PRES NEWDELHI_CI NEWDELHI_DP NEWDELHI_POCI REUNION_LAT REUNION_LON REUNION_TYPE REUNION_WIND REUNION_PRES REUNION_TNUM REUNION_CI REUNION_RMW REUNION_R34_NE REUNION_R34_SE REUNION_R34_SW REUNION_R34_NW REUNION_R50_NE REUNION_R50_SE REUNION_R50_SW REUNION_R50_NW REUNION_R64_NE REUNION_R64_SE REUNION_R64_SW REUNION_R64_NW BOM_LAT BOM_LON BOM_TYPE BOM_WIND BOM_PRES BOM_TNUM BOM_CI BOM_RMW BOM_R34_NE BOM_R34_SE BOM_R34_SW BOM_R34_NW BOM_R50_NE BOM_R50_SE BOM_R50_SW BOM_R50_NW BOM_R64_NE BOM_R64_SE BOM_R64_SW BOM_R64_NW BOM_ROCI BOM_POCI BOM_EYE BOM_POS_METHOD BOM_PRES_METHOD NADI_LAT NADI_LON NADI_CAT NADI_WIND NADI_PRES WELLINGTON_LAT WELLINGTON_LON WELLINGTON_WIND WELLINGTON_PRES DS824_LAT DS824_LON DS824_STAGE DS824_WIND DS824_PRES TD9636_LAT TD9636_LON TD9636_STAGE TD9636_WIND TD9636_PRES TD9635_LAT TD9635_LON TD9635_WIND TD9635_PRES TD9635_ROCI NEUMANN_LAT NEUMANN_LON NEUMANN_CLASS NEUMANN_WIND NEUMANN_PRES MLC_LAT MLC_LON MLC_CLASS MLC_WIND MLC_PRES USA_GUST BOM_GUST BOM_GUST_PER REUNION_GUST REUNION_GUST_PER USA_SEAHGT USA_SEARAD_NE USA_SEARAD_SE USA_SEARAD_SW USA_SEARAD_NW STORM_SPEED STORM_DIR
1944213N22291 1944 43 NA NA NOT_NAMED 1944-07-30 12:00:00 TS 21.5000 -69.0000 35 hurdat_atl main 236 236 O_____________ hurdat_atl AL031944 21.5000 -69.0000 TS 35 0 17 307
1944213N22291 1944 43 NA NA NOT_NAMED 1944-07-30 15:00:00 TS 22.0104 -69.7266 main 263 259 P_____________ AL031944 22.0104 -69.7266 TS 37 0 17 306
1944213N22291 1944 43 NA NA NOT_NAMED 1944-07-30 18:00:00 TS 22.5000 -70.5000 40 hurdat_atl main 296 258 O_____________ hurdat_atl AL031944 22.5000 -70.5000 TS 40 0 18 302
1944213N22291 1944 43 NA NA NOT_NAMED 1944-07-30 21:00:00 TS 22.9574 -71.3430 main 266 250 P_____________ AL031944 22.9574 -71.3430 TS 42 0 18 300
1944213N22291 1944 43 NA NA NOT_NAMED 1944-07-31 00:00:00 TS 23.4000 -72.2000 45 hurdat_atl main 259 256 O_____________ hurdat_atl AL031944 23.4000 -72.2000 TS 45 0 17 298
1944213N22291 1944 43 NA NA NOT_NAMED 1944-07-31 03:00:00 TS 23.7747 -73.0243 main 290 290 P_____________ AL031944 23.7747 -73.0243 TS 47 0 17 302
1944213N22291 1944 43 NA NA NOT_NAMED 1944-07-31 06:00:00 TS 24.3000 -73.8000 50 hurdat_atl main 351 329 O_____________ hurdat_atl AL031944 24.3000 -73.8000 TS 50 0 20 317
1944213N22291 1944 43 NA NA NOT_NAMED 1944-07-31 09:00:00 TS 25.2424 -74.5507 main 322 306 P_____________ AL031944 25.2424 -74.5507 TS 52 0 23 326
1944213N22291 1944 43 NA NA NOT_NAMED 1944-07-31 12:00:00 TS 26.2000 -75.2000 55 hurdat_atl main 306 291 O_____________ hurdat_atl AL031944 26.2000 -75.2000 TS 55 0 19 326
1944213N22291 1944 43 NA NA NOT_NAMED 1944-07-31 15:00:00 TS 26.7670 -75.7116 main 298 290 P_____________ AL031944 26.7670 -75.7116 TS 57 0 13 321
1944213N22291 1944 43 NA NA NOT_NAMED 1944-07-31 18:00:00 TS 27.2000 -76.1000 60 hurdat_atl main 301 301 O_____________ hurdat_atl AL031944 27.2000 -76.1000 TS 60 0 11 325
1944213N22291 1944 43 NA NA NOT_NAMED 1944-07-31 21:00:00 TS 27.6923 -76.4305 main 331 326 P_____________ AL031944 27.6923 -76.4305 TS 62 0 11 332
1944213N22291 1944 43 NA NA NOT_NAMED 1944-08-01 00:00:00 TS 28.2000 -76.7000 65 hurdat_atl main 360 351 O_____________ hurdat_atl AL031944 28.2000 -76.7000 HU 65 1 11 336
1944213N22291 1944 43 NA NA NOT_NAMED 1944-08-01 03:00:00 TS 28.7349 -76.9579 main 342 330 P_____________ AL031944 28.7349 -76.9579 HU 65 1 12 338
1944213N22291 1944 43 NA NA NOT_NAMED 1944-08-01 06:00:00 TS 29.3000 -77.2000 65 hurdat_atl main 333 325 O_____________ hurdat_atl AL031944 29.3000 -77.2000 HU 65 1 12 339
1944213N22291 1944 43 NA NA NOT_NAMED 1944-08-01 09:00:00 TS 29.8700 -77.4651 main 330 319 P_____________ AL031944 29.8700 -77.4651 HU 67 1 13 340
1944213N22291 1944 43 NA NA NOT_NAMED 1944-08-01 12:00:00 TS 30.5000 -77.7000 70 hurdat_atl main 319 254 O_____________ hurdat_atl AL031944 30.5000 -77.7000 HU 70 1 13 345
1944213N22291 1944 43 NA NA NOT_NAMED 1944-08-01 15:00:00 TS 31.1638 -77.8797 main 245 179 P_____________ AL031944 31.1638 -77.8797 HU 70 1 15 350
1944213N22291 1944 43 NA NA NOT_NAMED 1944-08-01 18:00:00 TS 32.0000 -78.0000 70 hurdat_atl main 172 78 O_____________ hurdat_atl AL031944 32.0000 -78.0000 HU 70 1 21 357
1944213N22291 1944 43 NA NA NOT_NAMED 1944-08-01 21:00:00 TS 33.2387 -78.0107 main 78 0 P_____________ AL031944 33.2387 -78.0107 HU 70 1 23 358
1944213N22291 1944 43 NA NA NOT_NAMED 1944-08-01 23:00:00 TS 33.9000 -78.1000 70 985 hurdat_atl main 0 0 O_____________ hurdat_atl AL031944 33.9000 -78.1000 L HU 70 985 1 18 350
1944213N22291 1944 43 NA NA NOT_NAMED 1944-08-02 00:00:00 TS 34.1000 -78.2000 60 985 hurdat_atl main 0 0 O_____________ hurdat_atl AL031944 34.1000 -78.2000 TS 60 985 0 15 351
1944213N22291 1944 43 NA NA NOT_NAMED 1944-08-02 03:00:00 TS 34.8699 -78.2936 main 0 0 P_____________ AL031944 34.8699 -78.2936 TS 52 0 16 0
1944213N22291 1944 43 NA NA NOT_NAMED 1944-08-02 06:00:00 TS 35.7000 -78.2000 45 hurdat_atl main 0 0 O_____________ hurdat_atl AL031944 35.7000 -78.2000 TS 45 0 15 5
1944213N22291 1944 43 NA NA NOT_NAMED 1944-08-02 09:00:00 TS 36.3524 -78.1447 main 0 0 P_____________ AL031944 36.3524 -78.1447 TS 40 0 12 8
1944213N22291 1944 43 NA NA NOT_NAMED 1944-08-02 12:00:00 TS 36.9000 -78.0000 35 hurdat_atl main 0 0 O_____________ hurdat_atl AL031944 36.9000 -78.0000 TS 35 0 11 16
1944213N22291 1944 43 NA NA NOT_NAMED 1944-08-02 15:00:00 TS 37.3871 -77.7745 main 0 0 P_____________ AL031944 37.3871 -77.7745 TS 35 0 10 28
1944213N22291 1944 43 NA NA NOT_NAMED 1944-08-02 18:00:00 TS 37.8000 -77.4000 35 hurdat_atl main 0 0 O_____________ hurdat_atl AL031944 37.8000 -77.4000 TS 35 0 11 42
1944213N22291 1944 43 NA NA NOT_NAMED 1944-08-02 21:00:00 TS 38.1646 -76.8818 main 8 0 P_____________ AL031944 38.1646 -76.8818 TS 35 0 12 53
1944213N22291 1944 43 NA NA NOT_NAMED 1944-08-03 00:00:00 TS 38.5000 -76.2000 35 hurdat_atl main 0 0 O_____________ hurdat_atl AL031944 38.5000 -76.2000 TS 35 0 14 59
1944213N22291 1944 43 NA NA NOT_NAMED 1944-08-03 03:00:00 TS 38.8576 -75.3875 main 0 0 P_____________ AL031944 38.8576 -75.3875 TS 35 0 15 62
1944213N22291 1944 43 NA NA NOT_NAMED 1944-08-03 06:00:00 TS 39.2000 -74.5000 35 hurdat_atl main 17 14 O_____________ hurdat_atl AL031944 39.2000 -74.5000 TS 35 0 15 64
1944213N22291 1944 43 NA NA NOT_NAMED 1944-08-03 09:00:00 TS 39.5142 -73.6567 main 48 48 P_____________ AL031944 39.5142 -73.6567 TS 35 0 14 65
1944213N22291 1944 43 NA NA NOT_NAMED 1944-08-03 12:00:00 TS 39.8000 -72.8000 35 hurdat_atl main 103 95 O_____________ hurdat_atl AL031944 39.8000 -72.8000 TS 35 0 15 68
1944213N22291 1944 43 NA NA NOT_NAMED 1944-08-03 15:00:00 TS 40.0573 -71.8918 main 97 97 P_____________ AL031944 40.0573 -71.8918 TS 35 0 15 70
1944213N22291 1944 43 NA NA NOT_NAMED 1944-08-03 18:00:00 TS 40.3000 -71.0000 35 hurdat_atl main 129 112 O_____________ hurdat_atl AL031944 40.3000 -71.0000 TS 35 0 14 69
1944213N22291 1944 43 NA NA NOT_NAMED 1944-08-03 21:00:00 TS 40.5493 -70.1768 main 118 108 P_____________ AL031944 40.5493 -70.1768 TS 32 -1 13 68
1944213N22291 1944 43 NA NA NOT_NAMED 1944-08-04 00:00:00 TS 40.8000 -69.4000 30 hurdat_atl main 111 111 O_____________ hurdat_atl AL031944 40.8000 -69.4000 TD 30 -1 13 67
1944213N22291 1944 43 NA NA NOT_NAMED 1944-08-04 03:00:00 TS 41.0510 -68.6462 main 134 134 P_____________ AL031944 41.0510 -68.6462 TD 30 -1 12 66
1944213N22291 1944 43 NA NA NOT_NAMED 1944-08-04 06:00:00 TS 41.3000 -67.9000 30 hurdat_atl main 179 O_____________ hurdat_atl AL031944 41.3000 -67.9000 TD 30 -1 12 66

IBTrACS Databaseについて

本データベースは、米国NOAAが公開する1842年以降の世界の熱帯低気圧のベストトラックデータアーカイブInternational Best Track Archive for Climate Stewardship (IBTrACS)を、ウェブで閲覧しやすい形式に変換したものです。

最終更新日:2021-12-06